Time;durP1;ratioP1;P1;durP2;ratioP2;P2;SDS_P1;SDS_P2;PMS_P1;PMS_P2;Temp;Humidity;BMP_temperature;BMP_pressure;BME280_temperature;BME280_humidity;BME280_pressure;Samples;Min_cycle;Max_cycle;Signal;HPM_P1;HPM_P2
2021/10/03 00:01:15;;;;;;;4.38;3.20;;;;;;;22.20;47.57;96113.72;4977277;28;20103;-86
2021/10/03 00:03:45;;;;;;;4.80;3.15;;;;;;;22.30;46.95;96121.19;4993742;28;20121;-86
2021/10/03 00:06:11;;;;;;;3.95;3.05;;;;;;;22.45;47.09;96116.97;4993424;28;20040;-86
2021/10/03 00:08:37;;;;;;;3.38;2.92;;;;;;;22.30;47.43;96131.03;4977178;28;20029;-86
2021/10/03 00:11:03;;;;;;;5.05;3.33;;;;;;;22.06;47.60;96122.16;4993463;28;20079;-87
2021/10/03 00:13:28;;;;;;;5.18;3.40;;;;;;;22.36;47.12;96129.63;4993693;28;20053;-89
2021/10/03 00:15:54;;;;;;;5.38;3.45;;;;;;;22.32;48.00;96124.25;4993044;28;20473;-88
2021/10/03 00:18:20;;;;;;;4.05;3.65;;;;;;;22.40;47.80;96119.88;4993801;28;20040;-86
2021/10/03 00:20:45;;;;;;;4.30;3.90;;;;;;;22.34;47.62;96126.56;4977251;28;20080;-84
2021/10/03 00:23:11;;;;;;;4.97;4.55;;;;;;;22.23;47.67;96115.69;4976378;28;20438;-88
2021/10/03 00:25:36;;;;;;;3.65;3.20;;;;;;;22.28;48.15;96112.03;4993006;28;20091;-86
2021/10/03 00:28:04;;;;;;;5.50;3.10;;;;;;;22.16;48.16;96105.72;5009297;28;20034;-88
2021/10/03 00:30:30;;;;;;;3.53;3.22;;;;;;;22.13;47.94;96116.22;4976871;28;20045;-88
2021/10/03 00:32:55;;;;;;;3.53;2.88;;;;;;;22.11;47.74;96105.97;4976813;28;20030;-90
2021/10/03 00:35:24;;;;;;;5.82;3.53;;;;;;;21.99;48.32;96106.84;4992712;28;20088;-87
2021/10/03 00:37:50;;;;;;;3.20;2.90;;;;;;;22.16;47.34;96116.31;4993300;28;20048;-88
2021/10/03 00:40:15;;;;;;;4.93;3.45;;;;;;;22.05;47.75;96102.84;4992624;28;20033;-88
2021/10/03 00:42:41;;;;;;;4.40;3.33;;;;;;;22.19;47.44;96109.53;4977101;28;20034;-87
2021/10/03 00:45:09;;;;;;;5.72;3.53;;;;;;;22.11;47.37;96113.94;4976417;28;20393;-87
2021/10/03 00:47:34;;;;;;;3.40;3.10;;;;;;;22.11;47.17;96107.88;4976869;28;20041;-89
2021/10/03 00:50:00;;;;;;;4.88;3.75;;;;;;;22.14;47.33;96096.56;4993301;28;20121;-88
2021/10/03 00:52:25;;;;;;;3.75;3.40;;;;;;;22.10;47.64;96107.06;4976655;28;20113;-88
2021/10/03 00:54:51;;;;;;;3.60;3.20;;;;;;;22.05;47.95;96107.34;4992707;28;20030;-90
2021/10/03 00:57:16;;;;;;;4.47;3.78;;;;;;;22.04;48.17;96087.28;4975500;28;20084;-89
2021/10/03 00:59:42;;;;;;;3.58;3.28;;;;;;;22.01;48.01;96095.91;4992484;28;20030;-86
2021/10/03 01:02:07;;;;;;;4.00;3.33;;;;;;;21.98;47.95;96097.34;4992718;28;20563;-86
2021/10/03 01:04:33;;;;;;;3.92;3.20;;;;;;;22.09;47.53;96094.94;4959403;28;20034;-87
2021/10/03 01:06:58;;;;;;;4.65;3.30;;;;;;;21.99;47.24;96080.34;4959727;28;20030;-85
2021/10/03 01:09:24;;;;;;;4.22;3.50;;;;;;;22.12;47.44;96082.88;4991904;28;20018;-84
2021/10/03 01:11:49;;;;;;;3.80;3.30;;;;;;;22.18;47.18;96090.22;4992051;28;20030;-88
2021/10/03 01:14:17;;;;;;;5.32;3.80;;;;;;;22.20;47.26;96081.91;4991633;28;20106;-86
2021/10/03 01:16:42;;;;;;;4.10;3.70;;;;;;;22.20;46.82;96072.06;4976157;28;20030;-88
2021/10/03 01:19:08;;;;;;;3.97;3.10;;;;;;;22.17;47.42;96080.72;4975523;28;20030;-87
2021/10/03 01:21:34;;;;;;;5.47;4.10;;;;;;;22.38;47.01;96084.97;4975704;28;20113;-87
2021/10/03 01:24:00;;;;;;;4.20;3.45;;;;;;;22.40;47.05;96078.19;4991716;28;20113;-88
2021/10/03 01:26:27;;;;;;;3.72;3.25;;;;;;;22.38;46.77;96074.34;4991485;28;20056;-87
2021/10/03 01:28:53;;;;;;;4.38;3.80;;;;;;;22.29;46.98;96077.22;4975563;28;20030;-87
2021/10/03 01:31:25;;;;;;;4.00;3.60;;;;;;;22.04;47.40;96082.72;4991728;28;20030;-88
2021/10/03 01:33:52;;;;;;;3.92;3.40;;;;;;;22.28;47.43;96072.25;4976439;28;20426;-83
2021/10/03 01:36:18;;;;;;;4.18;3.58;;;;;;;22.36;46.99;96066.75;4991728;28;20474;-88
2021/10/03 01:38:43;;;;;;;4.32;3.63;;;;;;;22.40;46.78;96069.50;4990513;28;20292;-87
2021/10/03 01:41:09;;;;;;;3.60;3.30;;;;;;;22.38;47.21;96069.03;4987560;28;20038;-88
2021/10/03 01:43:34;;;;;;;4.80;3.33;;;;;;;22.28;47.24;96070.38;4975371;28;20109;-86
2021/10/03 01:46:01;;;;;;;5.57;3.53;;;;;;;22.47;46.82;96064.31;4974712;28;20477;-87
2021/10/03 01:48:26;;;;;;;3.95;3.25;;;;;;;22.38;46.94;96066.38;4991320;28;20072;-86
2021/10/03 01:50:55;;;;;;;4.55;3.58;;;;;;;22.35;46.51;96061.81;4974786;28;20030;-87
2021/10/03 01:53:22;;;;;;;4.65;3.47;;;;;;;22.32;46.95;96059.84;5007404;28;20472;-88
2021/10/03 01:55:48;;;;;;;3.50;3.20;;;;;;;22.41;46.54;96055.88;4973777;28;20038;-87
2021/10/03 01:58:16;;;;;;;3.80;3.40;;;;;;;22.31;47.00;96053.00;4962121;28;20061;-88
2021/10/03 02:00:44;;;;;;;5.20;3.50;;;;;;;22.21;46.67;96043.69;4991368;28;20485;-86
2021/10/03 02:03:09;;;;;;;4.18;3.15;;;;;;;22.43;46.61;96042.25;4974822;28;20431;-84
2021/10/03 02:05:42;;;;;;;4.18;3.38;;;;;;;22.22;46.87;96038.03;4990910;28;20044;-87
2021/10/03 02:08:09;;;;;;;4.07;3.60;;;;;;;22.34;46.91;96041.69;4974943;28;20087;-87
2021/10/03 02:10:37;;;;;;;4.00;3.13;;;;;;;22.38;46.88;96039.88;4991151;28;20068;-88
2021/10/03 02:13:04;;;;;;;4.75;3.65;;;;;;;22.26;47.03;96033.56;4991214;28;20033;-87
2021/10/03 02:15:30;;;;;;;3.40;3.08;;;;;;;22.39;46.37;96022.84;4974360;28;20033;-88
2021/10/03 02:17:55;;;;;;;4.97;3.90;;;;;;;22.36;46.84;96019.03;4991160;28;20064;-87
2021/10/03 02:20:21;;;;;;;3.85;3.38;;;;;;;22.38;46.42;96018.66;4990995;28;20061;-87
2021/10/03 02:22:47;;;;;;;4.55;3.80;;;;;;;22.46;46.54;96023.00;5007012;28;20113;-87
2021/10/03 02:25:13;;;;;;;4.55;3.70;;;;;;;22.58;46.26;96025.50;4990826;28;20534;-87
2021/10/03 02:27:39;;;;;;;4.20;3.60;;;;;;;22.36;46.81;96015.59;4991319;28;20062;-88
2021/10/03 02:30:06;;;;;;;4.00;3.42;;;;;;;22.38;46.69;96005.41;4990915;28;20038;-88
2021/10/03 02:32:32;;;;;;;4.07;3.67;;;;;;;22.42;46.66;96027.47;4990797;28;20505;-88
2021/10/03 02:34:57;;;;;;;4.07;3.40;;;;;;;22.37;47.00;96014.47;4974206;28;20121;-88
2021/10/03 02:37:24;;;;;;;4.55;3.30;;;;;;;22.26;47.03;96004.41;4974886;28;20425;-87
2021/10/03 02:39:49;;;;;;;4.22;3.63;;;;;;;22.14;46.80;96012.50;4974478;28;20026;-87
2021/10/03 02:42:15;;;;;;;4.47;3.58;;;;;;;22.24;47.08;96005.84;4974826;28;20065;-88
2021/10/03 02:44:45;;;;;;;4.45;3.90;;;;;;;22.20;47.08;96007.69;5006905;28;20029;-87
2021/10/03 02:47:13;;;;;;;5.22;3.63;;;;;;;22.41;46.75;96002.84;4993399;28;20507;-88
2021/10/03 02:49:41;;;;;;;5.60;3.72;;;;;;;22.22;46.89;96010.75;4994479;28;20030;-89
2021/10/03 02:52:07;;;;;;;5.90;3.90;;;;;;;22.31;46.88;95989.34;4977903;28;20501;-85
2021/10/03 02:54:32;;;;;;;3.90;3.45;;;;;;;22.12;47.14;95980.25;4994269;28;20458;-87
2021/10/03 02:56:58;;;;;;;5.80;3.70;;;;;;;22.24;47.23;95996.03;4994735;28;20029;-88
2021/10/03 02:59:24;;;;;;;3.92;3.03;;;;;;;22.23;46.91;95999.03;4962356;28;20058;-88
2021/10/03 03:01:50;;;;;;;4.50;4.00;;;;;;;22.25;46.94;95997.56;4998075;28;20037;-87
2021/10/03 03:04:16;;;;;;;3.90;3.40;;;;;;;22.30;46.88;95985.19;5005618;28;20510;-89
2021/10/03 03:06:44;;;;;;;4.30;3.40;;;;;;;22.18;46.91;95986.81;4994691;28;20128;-87
2021/10/03 03:09:10;;;;;;;3.97;3.25;;;;;;;22.24;46.81;95969.53;4994885;28;20018;-87
2021/10/03 03:11:35;;;;;;;3.90;3.50;;;;;;;22.25;46.84;95970.28;5011137;28;20032;-88
2021/10/03 03:14:01;;;;;;;4.88;3.88;;;;;;;22.21;46.42;95969.47;4994186;28;20034;-88
2021/10/03 03:16:26;;;;;;;5.03;3.80;;;;;;;22.28;46.39;95979.44;4978437;28;20025;-88
2021/10/03 03:18:51;;;;;;;4.90;3.33;;;;;;;22.34;46.38;95976.16;4993392;28;20045;-87
2021/10/03 03:21:17;;;;;;;5.35;3.90;;;;;;;22.36;46.26;95973.94;4991062;28;20054;-87
2021/10/03 03:23:42;;;;;;;5.05;3.70;;;;;;;22.11;46.73;95970.78;4974874;28;20113;-84
2021/10/03 03:26:08;;;;;;;4.10;3.67;;;;;;;22.20;46.47;95963.38;4974923;28;20045;-88
2021/10/03 03:28:33;;;;;;;3.65;2.97;;;;;;;22.29;46.24;95965.06;4991270;28;20038;-88
2021/10/03 03:30:59;;;;;;;4.43;3.53;;;;;;;22.28;46.20;95955.56;4991031;28;20031;-88
2021/10/03 03:33:27;;;;;;;4.47;3.53;;;;;;;22.20;46.18;95946.69;4974914;28;20037;-85
2021/10/03 03:35:53;;;;;;;4.60;3.92;;;;;;;22.20;45.92;95947.47;4974274;28;20201;-88
2021/10/03 03:38:19;;;;;;;3.65;3.00;;;;;;;22.26;45.83;95951.38;4975146;28;20031;-86
2021/10/03 03:40:44;;;;;;;3.88;3.05;;;;;;;22.41;45.57;95947.13;4976149;28;20401;-89
2021/10/03 03:43:10;;;;;;;3.40;3.00;;;;;;;22.38;46.09;95950.50;4977809;28;20037;-89
2021/10/03 03:45:35;;;;;;;3.63;3.22;;;;;;;22.44;45.80;95953.63;4993842;28;20037;-87
2021/10/03 03:48:01;;;;;;;5.03;2.85;;;;;;;22.35;45.84;95947.78;5010308;28;20545;-88
2021/10/03 03:50:28;;;;;;;4.22;3.50;;;;;;;22.39;45.80;95948.59;5010176;28;20026;-88
2021/10/03 03:52:54;;;;;;;4.45;3.33;;;;;;;22.37;46.34;95954.25;4993733;28;20118;-88
2021/10/03 03:55:19;;;;;;;4.32;3.15;;;;;;;22.29;46.14;95951.81;4993629;28;20496;-88
2021/10/03 03:57:44;;;;;;;5.57;3.65;;;;;;;22.35;46.36;95950.44;4975825;28;20052;-88
2021/10/03 04:00:10;;;;;;;3.60;3.15;;;;;;;22.23;46.90;95941.47;5016077;28;20057;-88
2021/10/03 04:02:36;;;;;;;5.60;3.03;;;;;;;22.33;46.33;95937.50;4997335;28;20029;-88
2021/10/03 04:05:01;;;;;;;4.05;3.15;;;;;;;22.26;46.42;95930.16;4996866;28;20684;-89
2021/10/03 04:07:27;;;;;;;3.40;3.08;;;;;;;22.23;46.08;95936.16;5013740;28;20041;-85
2021/10/03 04:09:52;;;;;;;4.68;3.70;;;;;;;22.26;45.77;95935.47;4981055;28;20449;-87
2021/10/03 04:12:18;;;;;;;3.50;3.20;;;;;;;22.34;46.11;95935.63;4993603;28;20044;-88
2021/10/03 04:14:43;;;;;;;3.60;3.22;;;;;;;22.36;45.79;95928.06;4993417;28;20314;-89
2021/10/03 04:17:08;;;;;;;3.38;2.95;;;;;;;22.28;46.20;95927.19;4963676;28;20030;-86
2021/10/03 04:19:34;;;;;;;3.22;2.90;;;;;;;22.31;45.56;95923.06;4960242;28;20405;-88
2021/10/03 04:21:59;;;;;;;3.22;2.92;;;;;;;22.24;45.81;95913.06;4941748;28;20449;-87
2021/10/03 04:24:25;;;;;;;3.97;3.33;;;;;;;22.33;45.55;95915.50;4989682;28;20026;-87
2021/10/03 04:26:50;;;;;;;4.53;3.35;;;;;;;22.24;45.61;95916.50;4973814;28;20328;-88
2021/10/03 04:29:15;;;;;;;3.95;2.90;;;;;;;22.21;45.25;95903.94;4991345;28;20172;-86
2021/10/03 04:31:41;;;;;;;3.92;3.15;;;;;;;22.35;45.24;95911.41;4974074;28;20391;-86
2021/10/03 04:34:06;;;;;;;3.75;3.15;;;;;;;22.20;45.08;95913.00;4973411;28;20037;-88
2021/10/03 04:36:32;;;;;;;3.30;2.92;;;;;;;22.33;45.38;95900.38;4970208;28;20041;-88
2021/10/03 04:38:57;;;;;;;3.60;3.08;;;;;;;22.29;44.63;95891.59;4976184;28;20057;-88
2021/10/03 04:41:22;;;;;;;5.18;2.85;;;;;;;22.36;45.09;95896.25;4989459;28;20100;-88
2021/10/03 04:43:48;;;;;;;2.80;2.58;;;;;;;22.38;45.36;95907.28;4992624;28;20029;-88
2021/10/03 04:46:13;;;;;;;3.38;3.08;;;;;;;22.44;44.63;95903.97;4976766;28;20305;-89
2021/10/03 04:48:39;;;;;;;3.50;3.13;;;;;;;22.31;44.70;95894.69;4976920;28;20111;-88
2021/10/03 04:51:04;;;;;;;3.67;2.83;;;;;;;22.45;44.97;95899.47;4992465;28;20034;-87
2021/10/03 04:53:31;;;;;;;3.70;2.88;;;;;;;22.37;44.19;95903.84;4992814;28;20397;-88
2021/10/03 04:55:57;;;;;;;3.60;3.30;;;;;;;22.34;44.36;95899.25;4991987;28;20040;-87
2021/10/03 04:58:22;;;;;;;4.35;2.80;;;;;;;22.47;44.30;95891.91;4976494;28;20516;-88
2021/10/03 05:00:48;;;;;;;3.40;3.10;;;;;;;22.45;44.67;95891.50;4984440;28;20033;-88
2021/10/03 05:03:14;;;;;;;4.80;3.10;;;;;;;22.46;44.66;95889.59;4982244;28;20116;-88
2021/10/03 05:05:39;;;;;;;3.40;2.80;;;;;;;22.46;44.04;95893.03;5007828;28;20068;-86
2021/10/03 05:08:05;;;;;;;3.47;3.00;;;;;;;22.48;44.29;95893.44;5004303;28;20501;-88
2021/10/03 05:10:30;;;;;;;4.13;3.13;;;;;;;22.51;43.96;95898.03;4989252;28;20041;-86
2021/10/03 05:12:55;;;;;;;3.20;2.47;;;;;;;22.46;43.84;95890.38;5007545;28;20037;-87
2021/10/03 05:15:21;;;;;;;3.30;2.90;;;;;;;22.36;44.02;95886.44;4974598;28;20060;-88
2021/10/03 05:17:46;;;;;;;3.30;3.00;;;;;;;22.43;44.14;95888.41;4974839;28;20026;-87
2021/10/03 05:20:12;;;;;;;4.70;2.83;;;;;;;22.47;43.84;95891.91;4959113;28;20030;-87
2021/10/03 05:22:37;;;;;;;4.13;3.08;;;;;;;22.39;44.58;95898.97;4991048;28;20037;-87
2021/10/03 05:25:03;;;;;;;3.17;2.75;;;;;;;22.37;43.91;95898.56;4982009;28;20022;-87
2021/10/03 05:27:29;;;;;;;4.03;2.95;;;;;;;22.42;43.71;95900.91;4961576;28;20383;-88
2021/10/03 05:29:54;;;;;;;3.45;3.00;;;;;;;22.48;43.55;95904.03;4961827;28;20039;-88
2021/10/03 05:32:19;;;;;;;3.17;2.88;;;;;;;22.45;43.64;95904.75;4955614;28;20034;-87
2021/10/03 05:34:45;;;;;;;4.40;2.67;;;;;;;22.51;43.34;95908.66;4987614;28;20065;-87
2021/10/03 05:37:10;;;;;;;5.35;3.10;;;;;;;22.38;44.42;95886.84;4988864;28;20026;-87
2021/10/03 05:39:35;;;;;;;2.90;2.60;;;;;;;22.41;43.32;95898.63;4981435;28;20035;-87
2021/10/03 05:42:01;;;;;;;3.55;3.05;;;;;;;22.36;43.54;95901.56;4993932;28;20421;-82
2021/10/03 05:44:26;;;;;;;3.42;2.72;;;;;;;22.50;43.53;95904.47;4991323;28;20026;-87
2021/10/03 05:46:52;;;;;;;3.90;2.90;;;;;;;22.34;43.17;95893.94;4975381;28;20441;-87
2021/10/03 05:49:17;;;;;;;3.58;3.25;;;;;;;22.38;43.74;95908.06;5008308;28;20076;-87
2021/10/03 05:51:42;;;;;;;3.47;3.17;;;;;;;22.35;43.33;95905.34;4975246;28;20497;-85
2021/10/03 05:54:08;;;;;;;3.40;3.10;;;;;;;22.43;43.37;95902.47;4975272;28;20018;-88
2021/10/03 05:56:37;;;;;;;3.25;2.50;;;;;;;22.51;42.92;95892.72;4975142;28;20026;-87
2021/10/03 05:59:03;;;;;;;3.88;2.85;;;;;;;22.46;43.08;95897.56;4975495;28;20038;-86
2021/10/03 06:01:29;;;;;;;4.05;2.65;;;;;;;22.40;42.87;95900.50;5007692;28;20453;-87
2021/10/03 06:03:55;;;;;;;2.92;2.63;;;;;;;22.51;42.95;95908.66;4975992;28;20026;-87
2021/10/03 06:06:21;;;;;;;4.32;3.05;;;;;;;22.50;43.17;95907.13;4974907;28;20038;-86
2021/10/03 06:08:46;;;;;;;3.45;2.72;;;;;;;22.46;42.83;95900.97;4991543;28;20032;-86
2021/10/03 06:11:11;;;;;;;3.78;2.38;;;;;;;22.62;42.26;95903.53;4991545;28;20026;-87
2021/10/03 06:13:38;;;;;;;3.92;2.67;;;;;;;22.62;42.52;95904.28;4956865;28;20030;-87
2021/10/03 06:16:03;;;;;;;4.03;3.22;;;;;;;22.63;42.02;95910.38;4987935;28;20038;-87
2021/10/03 06:18:29;;;;;;;3.10;2.85;;;;;;;22.68;42.33;95911.97;4956705;28;20165;-88
2021/10/03 06:20:54;;;;;;;4.03;2.80;;;;;;;22.57;42.35;95923.16;4974386;28;20038;-86
2021/10/03 06:23:19;;;;;;;3.00;2.70;;;;;;;22.76;42.37;95913.63;4974975;28;20030;-84
2021/10/03 06:25:45;;;;;;;3.05;2.75;;;;;;;22.67;42.78;95915.72;4974741;28;20053;-87
2021/10/03 06:28:10;;;;;;;3.00;2.72;;;;;;;22.67;42.36;95918.38;4991247;28;20026;-87
2021/10/03 06:30:36;;;;;;;2.70;2.47;;;;;;;22.60;42.72;95924.31;5007917;28;20037;-87
2021/10/03 06:33:02;;;;;;;3.90;2.53;;;;;;;22.67;42.20;95927.13;4975241;28;20111;-88
2021/10/03 06:35:28;;;;;;;3.08;2.67;;;;;;;22.69;41.94;95938.16;4990811;28;20034;-88
2021/10/03 06:37:54;;;;;;;4.72;2.80;;;;;;;22.51;42.32;95942.38;4974992;28;20029;-86
2021/10/03 06:40:21;;;;;;;4.25;2.70;;;;;;;22.58;41.94;95932.63;4991254;28;20444;-86
2021/10/03 06:42:46;;;;;;;3.03;2.72;;;;;;;22.61;42.69;95933.84;4988056;28;20066;-87
2021/10/03 06:45:11;;;;;;;3.35;2.70;;;;;;;22.60;42.12;95943.69;4971533;28;20066;-85
2021/10/03 06:47:37;;;;;;;3.78;2.85;;;;;;;22.63;42.50;95950.16;4972553;28;20258;-88
2021/10/03 06:50:04;;;;;;;4.80;2.75;;;;;;;22.53;42.38;95940.88;4987830;28;20041;-87
2021/10/03 06:52:29;;;;;;;3.03;2.78;;;;;;;22.67;42.16;95947.56;4971662;28;20034;-85
2021/10/03 06:54:54;;;;;;;3.33;3.00;;;;;;;22.44;42.38;95950.97;4971169;28;20467;-87
2021/10/03 06:57:20;;;;;;;3.20;2.90;;;;;;;22.58;42.31;95953.09;4980577;28;20089;-87
2021/10/03 06:59:45;;;;;;;3.85;2.55;;;;;;;22.51;42.65;95956.38;4971324;28;20042;-87
2021/10/03 07:02:17;;;;;;;4.22;3.08;;;;;;;22.41;43.05;95951.66;4990138;28;20036;-85
2021/10/03 07:04:42;;;;;;;3.65;2.67;;;;;;;22.71;42.47;95954.47;4957847;28;20026;-88
2021/10/03 07:07:08;;;;;;;3.10;2.50;;;;;;;22.74;42.50;95963.59;5006512;28;20030;-86
2021/10/03 07:09:33;;;;;;;3.55;2.50;;;;;;;22.57;42.43;95976.22;4990410;28;20042;-88
2021/10/03 07:11:59;;;;;;;3.85;2.60;;;;;;;22.66;42.52;95959.31;4958187;28;20034;-87
2021/10/03 07:14:24;;;;;;;2.92;2.70;;;;;;;22.59;42.06;95957.31;4990288;28;20042;-87
2021/10/03 07:16:49;;;;;;;3.10;2.60;;;;;;;22.63;41.72;95961.53;4990577;28;20033;-85
2021/10/03 07:19:15;;;;;;;3.65;2.97;;;;;;;22.65;42.35;95971.03;4974113;28;20022;-86
2021/10/03 07:21:40;;;;;;;2.88;2.42;;;;;;;22.56;42.67;95973.91;4990626;28;20045;-84
2021/10/03 07:24:05;;;;;;;3.42;2.88;;;;;;;22.56;42.20;95979.97;4957433;28;20478;-88
2021/10/03 07:26:33;;;;;;;3.22;2.92;;;;;;;22.50;42.41;95965.47;4989887;28;20060;-87
2021/10/03 07:28:59;;;;;;;3.15;2.35;;;;;;;22.66;42.16;95954.75;4990525;28;20512;-88
2021/10/03 07:31:24;;;;;;;3.55;2.47;;;;;;;22.53;43.17;95962.09;4970887;28;20078;-86
2021/10/03 07:33:50;;;;;;;2.83;2.63;;;;;;;22.67;42.71;95972.22;4973730;28;20436;-88
2021/10/03 07:36:19;;;;;;;4.80;3.00;;;;;;;22.68;42.35;95962.38;4991110;28;20037;-87
2021/10/03 07:38:45;;;;;;;3.30;3.00;;;;;;;22.71;42.97;95977.59;4994220;28;20022;-87
2021/10/03 07:41:10;;;;;;;3.05;2.75;;;;;;;22.70;42.94;95973.41;4992580;28;20038;-85
2021/10/03 07:43:35;;;;;;;2.72;2.53;;;;;;;22.64;42.40;95972.94;4980767;28;20415;-87
2021/10/03 07:46:01;;;;;;;2.95;2.60;;;;;;;22.68;41.95;95967.69;5009747;28;20042;-87
2021/10/03 07:48:26;;;;;;;3.30;2.60;;;;;;;22.69;42.24;95977.94;4977466;28;20505;-87
2021/10/03 07:50:51;;;;;;;4.35;2.78;;;;;;;22.72;42.76;95976.47;4977013;28;20429;-86
2021/10/03 07:53:17;;;;;;;5.85;3.13;;;;;;;22.40;41.95;95981.97;4993133;28;20309;-86
2021/10/03 07:55:43;;;;;;;3.80;2.58;;;;;;;22.64;42.27;95983.53;4977006;28;20081;-87
2021/10/03 07:58:09;;;;;;;3.00;2.70;;;;;;;22.63;42.45;95987.31;4993492;28;20117;-87
2021/10/03 08:00:35;;;;;;;3.05;2.47;;;;;;;22.76;42.87;95990.56;4997035;28;20132;-86
2021/10/03 08:03:01;;;;;;;3.05;2.50;;;;;;;22.79;42.49;95987.97;5012921;28;20101;-88
2021/10/03 08:05:26;;;;;;;3.05;2.63;;;;;;;22.76;41.87;95990.56;5012592;28;20037;-88
2021/10/03 08:07:52;;;;;;;3.97;2.53;;;;;;;22.76;42.09;95990.56;4996345;28;20052;-88
2021/10/03 08:10:17;;;;;;;3.15;2.42;;;;;;;22.72;42.52;95989.72;5013177;28;20055;-87
2021/10/03 08:12:42;;;;;;;2.90;2.50;;;;;;;22.68;42.13;95991.56;4993327;28;20042;-86
2021/10/03 08:15:09;;;;;;;3.38;2.33;;;;;;;22.90;42.56;95998.00;4992791;28;20475;-85
2021/10/03 08:17:34;;;;;;;3.45;2.97;;;;;;;22.88;42.31;96001.03;4993243;28;20026;-87
2021/10/03 08:20:00;;;;;;;2.60;2.40;;;;;;;22.87;42.40;95999.47;4992878;28;20452;-86
2021/10/03 08:22:25;;;;;;;3.40;2.70;;;;;;;22.75;42.42;96002.28;5009444;28;20129;-84
2021/10/03 08:24:51;;;;;;;2.90;2.20;;;;;;;22.85;42.45;96006.28;5009031;28;20037;-86
2021/10/03 08:27:16;;;;;;;2.72;2.50;;;;;;;22.64;42.27;95988.84;4976467;28;20029;-87
2021/10/03 08:29:41;;;;;;;3.17;2.80;;;;;;;22.49;42.54;96001.06;4993030;28;20087;-88
2021/10/03 08:32:07;;;;;;;3.85;2.80;;;;;;;22.65;43.10;96006.28;4992456;28;20460;-87
2021/10/03 08:34:32;;;;;;;3.08;2.60;;;;;;;22.70;42.36;95999.94;4978552;28;20445;-88
2021/10/03 08:37:01;;;;;;;2.97;2.55;;;;;;;22.42;42.66;96001.69;4959331;28;20026;-88
2021/10/03 08:39:26;;;;;;;3.92;2.97;;;;;;;22.53;43.58;95993.94;4973480;28;20026;-88
2021/10/03 08:41:52;;;;;;;4.30;2.70;;;;;;;22.70;42.65;95999.94;4992608;28;20049;-87
2021/10/03 08:44:18;;;;;;;2.45;2.25;;;;;;;22.66;42.91;95989.25;4991548;28;20026;-85
2021/10/03 08:46:45;;;;;;;3.17;2.53;;;;;;;22.68;43.13;96008.25;4976532;28;20030;-87
2021/10/03 08:49:11;;;;;;;3.05;2.30;;;;;;;22.66;42.30;96002.53;4976435;28;20129;-88
2021/10/03 08:51:36;;;;;;;2.40;2.20;;;;;;;22.85;42.11;96000.97;4975875;28;20124;-86
2021/10/03 08:54:02;;;;;;;2.92;2.65;;;;;;;22.79;42.30;96003.13;5008215;28;20092;-88
2021/10/03 08:56:28;;;;;;;2.55;2.35;;;;;;;22.82;42.11;96005.06;4992829;28;20077;-86
2021/10/03 08:58:53;;;;;;;2.75;2.55;;;;;;;22.99;41.66;96001.94;4976423;28;20041;-88
2021/10/03 09:01:19;;;;;;;3.65;2.63;;;;;;;22.91;42.30;96010.16;4975959;28;20061;-88
2021/10/03 09:03:45;;;;;;;2.45;2.20;;;;;;;23.11;42.30;96003.69;4975698;28;20034;-86
2021/10/03 09:06:11;;;;;;;3.88;2.63;;;;;;;23.14;41.80;96004.88;4976529;28;20080;-89
2021/10/03 09:08:42;;;;;;;2.97;2.42;;;;;;;23.22;41.74;96003.88;4976354;28;20041;-87
2021/10/03 09:11:09;;;;;;;2.63;2.25;;;;;;;23.27;42.28;96003.59;4992816;28;20564;-87
2021/10/03 09:13:34;;;;;;;2.35;2.05;;;;;;;23.43;41.49;96014.06;4992307;28;20037;-86
2021/10/03 09:16:28;;;;;;;2.63;2.42;;;;;;;23.02;42.96;96011.09;4992420;28;20124;-85
2021/10/03 09:18:58;;;;;;;3.15;2.35;;;;;;;23.36;42.10;96017.38;4972707;28;20038;-89
2021/10/03 09:21:32;;;;;;;3.92;2.47;;;;;;;23.28;42.42;96021.03;4992080;28;20069;-87
2021/10/03 09:23:58;;;;;;;2.25;2.05;;;;;;;23.29;42.46;96017.28;5009249;28;20025;-87
2021/10/03 09:26:23;;;;;;;2.90;2.63;;;;;;;23.14;42.43;96023.47;4989179;28;20453;-85
2021/10/03 09:28:49;;;;;;;2.83;2.33;;;;;;;23.08;42.07;96022.22;4989023;28;20362;-87
2021/10/03 09:31:15;;;;;;;2.50;2.13;;;;;;;23.19;41.99;96015.97;4956666;28;20037;-85
2021/10/03 09:33:45;;;;;;;2.30;2.10;;;;;;;23.29;42.91;96029.78;4972745;28;20038;-87
2021/10/03 09:36:13;;;;;;;2.50;2.30;;;;;;;23.32;42.89;96013.91;4988907;28;20125;-88
2021/10/03 09:38:46;;;;;;;2.42;2.05;;;;;;;23.18;42.61;96017.09;4972696;28;20046;-86
2021/10/03 09:41:12;;;;;;;2.65;2.42;;;;;;;23.39;42.15;96013.25;4985574;28;20045;-87
2021/10/03 09:43:48;;;;;;;2.60;2.40;;;;;;;23.21;42.26;96020.16;4970859;28;20026;-87
2021/10/03 09:46:35;;;;;;;3.75;2.30;;;;;;;23.17;43.16;96020.88;4991439;28;20057;-87
2021/10/03 09:49:03;;;;;;;3.67;2.33;;;;;;;23.40;42.14;96016.66;4991779;28;20022;-88
2021/10/03 09:51:28;;;;;;;2.53;2.33;;;;;;;23.58;41.37;96025.69;4975066;28;20032;-87
2021/10/03 09:53:54;;;;;;;2.38;2.15;;;;;;;23.59;41.83;96031.75;4991520;28;20022;-88
2021/10/03 09:56:20;;;;;;;3.20;2.55;;;;;;;23.66;41.87;96027.31;4990483;28;20401;-84
2021/10/03 09:58:46;;;;;;;2.30;2.10;;;;;;;23.74;42.11;96036.91;4991475;28;20429;-86
2021/10/03 10:01:13;;;;;;;3.17;2.50;;;;;;;23.74;42.86;96031.59;4976357;28;20556;-88
2021/10/03 10:03:39;;;;;;;3.55;2.30;;;;;;;23.80;43.47;96037.38;4991239;28;20325;-87
2021/10/03 10:06:05;;;;;;;2.72;1.90;;;;;;;23.68;42.06;96025.06;4991579;28;20030;-87
2021/10/03 10:08:36;;;;;;;2.47;2.28;;;;;;;23.59;43.84;96027.19;4975352;28;20117;-86
2021/10/03 10:11:13;;;;;;;2.80;2.58;;;;;;;23.46;43.42;96039.94;4991941;28;20389;-86
2021/10/03 10:13:39;;;;;;;2.65;2.30;;;;;;;23.63;42.20;96027.25;4991423;28;20030;-88
2021/10/03 10:16:27;;;;;;;2.90;2.42;;;;;;;23.42;43.67;96043.66;4974897;28;20096;-86
2021/10/03 10:19:26;;;;;;;2.40;2.20;;;;;;;23.19;46.08;96039.13;5009333;28;20073;-88
2021/10/03 10:22:19;;;;;;;3.08;2.42;;;;;;;23.22;45.97;96040.28;4991420;28;20081;-86
2021/10/03 10:24:58;;;;;;;2.92;2.13;;;;;;;23.33;45.35;96035.91;4990917;28;20128;-88
2021/10/03 10:27:24;;;;;;;3.20;2.63;;;;;;;23.45;44.71;96027.00;4975282;28;20032;-86
2021/10/03 10:30:00;;;;;;;2.70;2.50;;;;;;;23.16;44.34;96024.63;4991429;28;20310;-87
2021/10/03 10:32:29;;;;;;;2.58;2.38;;;;;;;23.29;44.95;96025.25;4991537;28;20489;-87
2021/10/03 10:35:07;;;;;;;2.35;2.15;;;;;;;23.17;45.61;96017.47;4974328;28;20031;-87
2021/10/03 10:37:51;;;;;;;3.38;2.20;;;;;;;23.11;45.62;95998.38;4987823;28;20026;-86
2021/10/03 10:40:28;;;;;;;2.60;2.35;;;;;;;23.00;47.62;96003.50;4994774;28;20034;-86
2021/10/03 10:43:02;;;;;;;2.70;2.50;;;;;;;23.23;47.04;95989.47;4991022;28;20030;-86
2021/10/03 10:45:28;;;;;;;2.75;2.47;;;;;;;23.18;46.56;95993.22;4990659;28;20044;-87
2021/10/03 10:48:08;;;;;;;2.67;2.15;;;;;;;23.04;46.22;95994.81;4991138;28;20128;-87
2021/10/03 10:50:35;;;;;;;2.92;2.20;;;;;;;23.25;46.10;95997.84;5008496;28;20520;-86
2021/10/03 10:53:22;;;;;;;3.03;2.65;;;;;;;22.98;46.26;95995.13;5008868;28;20030;-86
2021/10/03 10:56:06;;;;;;;2.97;2.50;;;;;;;22.98;45.64;95984.50;5008328;28;20026;-86
2021/10/03 10:58:52;;;;;;;2.78;2.58;;;;;;;23.05;45.64;95989.16;5007352;28;20030;-86
2021/10/03 11:01:35;;;;;;;2.80;2.25;;;;;;;23.03;45.37;95982.66;4994441;28;20234;-87
2021/10/03 11:04:09;;;;;;;2.97;2.67;;;;;;;23.30;45.12;95978.94;5001523;28;20030;-85
2021/10/03 11:06:35;;;;;;;2.50;2.30;;;;;;;23.55;45.25;95978.56;4974710;28;20037;-85
2021/10/03 11:09:03;;;;;;;2.83;2.33;;;;;;;23.68;47.28;95971.94;5010531;28;20038;-85
2021/10/03 11:11:30;;;;;;;2.60;2.40;;;;;;;23.71;46.50;95970.44;4994680;28;20414;-86
2021/10/03 11:13:57;;;;;;;2.60;2.40;;;;;;;23.90;44.66;95965.00;4994376;28;20022;-87
2021/10/03 11:16:35;;;;;;;3.17;2.40;;;;;;;24.02;44.63;95972.00;4978359;28;20493;-87
2021/10/03 11:19:05;;;;;;;3.45;2.35;;;;;;;24.30;44.28;95973.47;4994979;28;20030;-87
2021/10/03 11:21:34;;;;;;;2.75;2.55;;;;;;;24.48;44.07;95982.38;4978877;28;20480;-86
2021/10/03 11:24:03;;;;;;;2.42;2.20;;;;;;;24.48;43.60;95979.72;5010494;28;20371;-88
2021/10/03 11:26:43;;;;;;;2.60;2.40;;;;;;;24.31;43.00;95986.38;4994330;28;20529;-88
2021/10/03 11:29:09;;;;;;;3.38;2.10;;;;;;;24.38;42.10;95974.31;4974989;28;20031;-88
2021/10/03 11:31:38;;;;;;;2.55;2.30;;;;;;;24.39;42.10;95981.16;5006708;28;20161;-88
2021/10/03 11:34:05;;;;;;;3.95;2.53;;;;;;;24.36;41.72;95993.28;4993833;28;20367;-87